Time;durP1;ratioP1;P1;durP2;ratioP2;P2;SDS_P1;SDS_P2;PMS_P1;PMS_P2;Temp;Humidity;BMP_temperature;BMP_pressure;BME280_temperature;BME280_humidity;BME280_pressure;Samples;Min_cycle;Max_cycle;Signal;HPM_P1;HPM_P2
2021/12/29 00:00:15;;;;;;;125.07;19.85;;;;;;;;;;5009795;28;20053;-88
2021/12/29 00:02:42;;;;;;;152.02;19.33;;;;;;;;;;4998102;28;20060;-89
2021/12/29 00:05:08;;;;;;;148.73;19.45;;;;;;;;;;5002961;28;20092;-88
2021/12/29 00:07:34;;;;;;;135.13;20.77;;;;;;;;;;5001870;28;20866;-89
2021/12/29 00:10:01;;;;;;;143.85;22.55;;;;;;;;;;4988597;28;20100;-88
2021/12/29 00:12:28;;;;;;;95.20;18.80;;;;;;;;;;5004336;28;20592;-90
2021/12/29 00:14:54;;;;;;;102.47;20.73;;;;;;;;;;5004111;28;20048;-89
2021/12/29 00:17:20;;;;;;;117.78;19.90;;;;;;;;;;5009313;28;20080;-90
2021/12/29 00:19:47;;;;;;;123.07;21.77;;;;;;;;;;5005200;28;20488;-88
2021/12/29 00:22:13;;;;;;;127.50;19.13;;;;;;;;;;5007627;28;20182;-88
2021/12/29 00:24:39;;;;;;;77.75;17.65;;;;;;;;;;5003089;28;20057;-89
2021/12/29 00:27:07;;;;;;;89.60;21.63;;;;;;;;;;5006892;28;20069;-89
2021/12/29 00:29:33;;;;;;;67.18;18.67;;;;;;;;;;5010397;28;20593;-90
2021/12/29 00:31:59;;;;;;;80.85;17.42;;;;;;;;;;4986414;28;20042;-87
2021/12/29 00:34:25;;;;;;;91.18;21.42;;;;;;;;;;5006578;28;20045;-87
2021/12/29 00:36:51;;;;;;;115.43;22.00;;;;;;;;;;5007486;28;20509;-88
2021/12/29 00:39:17;;;;;;;127.82;20.02;;;;;;;;;;5005940;28;20092;-89
2021/12/29 00:41:43;;;;;;;140.57;19.80;;;;;;;;;;5003052;28;20139;-87
2021/12/29 00:44:19;;;;;;;154.98;17.65;;;;;;;;;;5003233;28;20038;-88
2021/12/29 00:46:45;;;;;;;149.13;18.15;;;;;;;;;;4987193;28;20060;-89
2021/12/29 00:49:12;;;;;;;95.88;18.77;;;;;;;;;;4988088;28;20050;-89
2021/12/29 00:51:38;;;;;;;116.32;17.63;;;;;;;;;;4968964;28;20092;-86
2021/12/29 00:54:04;;;;;;;176.48;17.98;;;;;;;;;;4985877;28;20045;-87
2021/12/29 00:56:31;;;;;;;164.13;21.48;;;;;;;;;;4996278;28;20044;-87
2021/12/29 00:58:57;;;;;;;177.15;18.02;;;;;;;;;;5001583;28;20041;-88
2021/12/29 01:01:23;;;;;;;218.80;21.70;;;;;;;;;;4984426;28;20814;-88
2021/12/29 01:03:49;;;;;;;186.88;18.13;;;;;;;;;;5006067;28;20034;-87
2021/12/29 01:06:17;;;;;;;156.48;19.02;;;;;;;;;;5006438;28;20049;-87
2021/12/29 01:08:43;;;;;;;125.32;18.80;;;;;;;;;;4985504;28;20488;-88
2021/12/29 01:11:09;;;;;;;143.35;21.05;;;;;;;;;;4992447;28;20037;-87
2021/12/29 01:13:44;;;;;;;104.43;16.83;;;;;;;;;;4990091;28;20042;-88
2021/12/29 01:16:36;;;;;;;94.72;15.85;;;;;;;;;;5017701;28;20128;-87
2021/12/29 01:18:56;;;;;;;48.70;13.52;;;;;;;;;;5016815;28;20050;-87
2021/12/29 01:21:22;;;;;;;38.28;14.25;;;;;;;;;;4975934;28;20501;-87
2021/12/29 01:24:07;;;;;;;54.45;13.63;;;;;;;;;;4980310;28;20045;-88
2021/12/29 01:26:33;;;;;;;27.08;12.82;;;;;;;;;;4984483;28;20061;-88
2021/12/29 01:28:59;;;;;;;25.00;14.10;;;;;;;;;;5012012;28;20133;-88
2021/12/29 01:31:25;;;;;;;31.30;13.07;;;;;;;;;;5020289;28;20049;-88
2021/12/29 01:33:52;;;;;;;34.10;13.45;;;;;;;;;;5009034;28;20056;-88
2021/12/29 01:36:18;;;;;;;75.03;15.27;;;;;;;;;;5000350;28;20104;-88
2021/12/29 01:38:44;;;;;;;27.25;14.18;;;;;;;;;;4994887;28;20081;-88
2021/12/29 01:41:10;;;;;;;60.10;14.88;;;;;;;;;;4969403;28;20043;-88
2021/12/29 01:43:36;;;;;;;49.60;15.77;;;;;;;;;;5002698;28;20054;-90
2021/12/29 01:46:02;;;;;;;50.85;15.73;;;;;;;;;;5007097;28;20040;-90
2021/12/29 01:48:41;;;;;;;37.97;13.85;;;;;;;;;;5010706;28;20041;-89
2021/12/29 01:51:18;;;;;;;46.22;14.32;;;;;;;;;;5015042;28;20080;-89
2021/12/29 01:54:02;;;;;;;104.07;14.95;;;;;;;;;;5020740;28;20053;-88
2021/12/29 01:56:29;;;;;;;66.82;14.82;;;;;;;;;;5011490;28;20046;-86
2021/12/29 01:58:55;;;;;;;94.85;15.02;;;;;;;;;;4989998;28;20042;-89
2021/12/29 02:01:22;;;;;;;47.75;13.43;;;;;;;;;;4980346;28;20763;-87
2021/12/29 02:03:48;;;;;;;56.28;14.82;;;;;;;;;;5012522;28;20052;-87
2021/12/29 02:06:14;;;;;;;90.22;14.85;;;;;;;;;;4972187;28;20049;-87
2021/12/29 02:08:40;;;;;;;70.70;15.02;;;;;;;;;;5006773;28;20044;-89
2021/12/29 02:11:07;;;;;;;86.10;13.65;;;;;;;;;;5005472;28;20030;-89
2021/12/29 02:13:33;;;;;;;148.88;15.30;;;;;;;;;;4990825;28;20041;-87
2021/12/29 02:16:02;;;;;;;168.05;18.35;;;;;;;;;;4996053;28;20156;-88
2021/12/29 02:18:30;;;;;;;124.57;15.40;;;;;;;;;;5012043;28;20076;-88
2021/12/29 02:20:57;;;;;;;110.22;14.52;;;;;;;;;;5013340;28;20509;-89
2021/12/29 02:23:46;;;;;;;187.15;15.38;;;;;;;;;;5007193;28;20050;-87
2021/12/29 02:26:13;;;;;;;222.82;16.75;;;;;;;;;;5016917;28;20043;-88
2021/12/29 02:28:41;;;;;;;203.57;17.02;;;;;;;;;;5009582;28;20045;-88
2021/12/29 02:31:07;;;;;;;149.10;15.75;;;;;;;;;;5010541;28;20049;-88
2021/12/29 02:33:35;;;;;;;118.78;13.60;;;;;;;;;;5017352;28;20557;-88
2021/12/29 02:36:17;;;;;;;124.85;13.40;;;;;;;;;;4988748;28;20057;-87
2021/12/29 02:38:47;;;;;;;81.45;12.10;;;;;;;;;;5008629;28;20853;-90
2021/12/29 02:41:14;;;;;;;49.03;12.13;;;;;;;;;;5006730;28;20068;-89
2021/12/29 02:43:40;;;;;;;43.25;11.02;;;;;;;;;;5018447;28;20049;-88
2021/12/29 02:46:11;;;;;;;34.95;11.23;;;;;;;;;;5009053;28;20128;-88
2021/12/29 02:48:40;;;;;;;34.17;10.27;;;;;;;;;;5006893;28;20379;-89
2021/12/29 02:51:09;;;;;;;31.30;9.75;;;;;;;;;;5009353;28;20049;-88
2021/12/29 02:53:38;;;;;;;44.95;10.43;;;;;;;;;;4999951;28;20045;-89
2021/12/29 02:56:17;;;;;;;43.55;11.18;;;;;;;;;;4988141;28;20053;-89
2021/12/29 02:58:46;;;;;;;86.15;12.90;;;;;;;;;;4995087;28;20045;-89
2021/12/29 03:01:14;;;;;;;59.72;12.65;;;;;;;;;;4993583;28;20038;-89
2021/12/29 03:03:41;;;;;;;76.45;14.52;;;;;;;;;;5009237;28;20045;-88
2021/12/29 03:06:08;;;;;;;91.03;15.20;;;;;;;;;;5006344;28;20045;-88
2021/12/29 03:08:34;;;;;;;93.75;15.63;;;;;;;;;;5006745;28;20120;-88
2021/12/29 03:11:00;;;;;;;132.20;18.13;;;;;;;;;;5007289;28;20060;-88
2021/12/29 03:13:32;;;;;;;138.43;19.25;;;;;;;;;;5002652;28;20034;-88
2021/12/29 03:15:58;;;;;;;146.85;19.08;;;;;;;;;;5011986;28;20048;-88
2021/12/29 03:18:25;;;;;;;112.20;19.63;;;;;;;;;;5008824;28;20042;-89
2021/12/29 03:20:51;;;;;;;85.07;19.15;;;;;;;;;;5007005;28;20406;-87
2021/12/29 03:23:18;;;;;;;120.05;20.73;;;;;;;;;;4998187;28;20045;-88
2021/12/29 03:25:48;;;;;;;132.85;20.92;;;;;;;;;;4994634;28;20136;-87
2021/12/29 03:28:14;;;;;;;147.98;19.85;;;;;;;;;;5017549;28;20635;-89
2021/12/29 03:30:41;;;;;;;112.18;19.65;;;;;;;;;;5009988;28;20125;-89
2021/12/29 03:33:09;;;;;;;130.35;20.67;;;;;;;;;;5014224;28;20080;-87
2021/12/29 03:36:05;;;;;;;106.90;19.45;;;;;;;;;;5000505;28;20133;-87
2021/12/29 03:38:32;;;;;;;147.00;21.38;;;;;;;;;;4986576;28;20076;-88
2021/12/29 03:40:59;;;;;;;139.18;20.58;;;;;;;;;;5005883;28;20528;-87
2021/12/29 03:43:26;;;;;;;116.25;20.25;;;;;;;;;;5018820;28;20450;-88
2021/12/29 03:45:52;;;;;;;179.50;20.50;;;;;;;;;;5006919;28;20045;-88
2021/12/29 03:48:20;;;;;;;145.85;24.05;;;;;;;;;;5019036;28;20091;-87
2021/12/29 03:50:49;;;;;;;202.55;23.02;;;;;;;;;;5014887;28;20125;-87
2021/12/29 03:53:16;;;;;;;167.45;22.77;;;;;;;;;;5010099;28;20418;-86
2021/12/29 03:55:43;;;;;;;169.05;23.33;;;;;;;;;;4990921;28;20037;-89
2021/12/29 03:58:09;;;;;;;152.00;22.92;;;;;;;;;;5004235;28;20502;-89
2021/12/29 04:00:35;;;;;;;110.65;21.65;;;;;;;;;;5012614;28;20158;-87
2021/12/29 04:03:01;;;;;;;129.13;23.80;;;;;;;;;;4997863;28;20107;-88
2021/12/29 04:05:28;;;;;;;145.68;23.13;;;;;;;;;;5009009;28;20053;-89
2021/12/29 04:07:55;;;;;;;112.93;22.08;;;;;;;;;;5017727;28;20077;-88
2021/12/29 04:10:22;;;;;;;151.32;23.02;;;;;;;;;;5009116;28;20099;-87
2021/12/29 04:12:48;;;;;;;180.40;23.77;;;;;;;;;;5002486;28;20073;-87
2021/12/29 04:15:15;;;;;;;183.60;26.38;;;;;;;;;;5012192;28;20034;-88
2021/12/29 04:17:42;;;;;;;159.70;22.90;;;;;;;;;;5010099;28;20042;-87
2021/12/29 04:22:58;;;;;;;242.98;25.67;;;;;;;;;;5011151;28;20122;-87
2021/12/29 04:25:25;;;;;;;194.20;23.80;;;;;;;;;;5004336;28;20073;-88
2021/12/29 04:27:51;;;;;;;206.43;24.67;;;;;;;;;;5011584;28;20870;-87
2021/12/29 04:30:17;;;;;;;189.10;23.23;;;;;;;;;;4990242;28;20045;-87
2021/12/29 04:32:43;;;;;;;194.85;26.05;;;;;;;;;;4978800;28;20415;-88
2021/12/29 04:35:10;;;;;;;197.20;24.52;;;;;;;;;;5015606;28;20066;-87
2021/12/29 04:37:36;;;;;;;149.88;23.48;;;;;;;;;;4980629;28;20042;-90
2021/12/29 04:40:03;;;;;;;169.25;22.33;;;;;;;;;;5006105;28;20052;-89
2021/12/29 04:42:38;;;;;;;156.20;21.75;;;;;;;;;;5007717;28;20066;-87
2021/12/29 04:45:05;;;;;;;167.15;24.80;;;;;;;;;;5016880;28;20050;-88
2021/12/29 04:47:31;;;;;;;163.70;22.83;;;;;;;;;;4999489;28;20432;-91
2021/12/29 04:50:02;;;;;;;221.25;24.75;;;;;;;;;;5010126;28;20036;-88
2021/12/29 04:52:30;;;;;;;243.15;24.67;;;;;;;;;;5007568;28;20045;-89
2021/12/29 04:54:56;;;;;;;259.65;25.30;;;;;;;;;;5015671;28;20037;-89
2021/12/29 04:57:22;;;;;;;233.85;24.10;;;;;;;;;;5011313;28;20128;-87
2021/12/29 04:59:48;;;;;;;308.95;26.17;;;;;;;;;;5012979;28;20041;-87
2021/12/29 05:02:15;;;;;;;293.08;25.13;;;;;;;;;;5014542;28;20041;-87
2021/12/29 05:04:47;;;;;;;288.35;26.02;;;;;;;;;;5001931;28;20408;-89
2021/12/29 05:10:00;;;;;;;295.45;24.58;;;;;;;;;;5000448;28;20041;-86
2021/12/29 05:12:26;;;;;;;279.85;22.50;;;;;;;;;;4995959;28;20111;-92
2021/12/29 05:14:52;;;;;;;279.42;23.70;;;;;;;;;;5001490;28;20402;-88
2021/12/29 05:17:18;;;;;;;264.48;23.88;;;;;;;;;;5005806;28;20091;-87
2021/12/29 05:19:44;;;;;;;330.38;24.95;;;;;;;;;;4981659;28;20050;-88
2021/12/29 05:22:10;;;;;;;227.30;22.95;;;;;;;;;;5011050;28;20848;-88
2021/12/29 05:24:37;;;;;;;260.98;20.63;;;;;;;;;;4994759;28;20046;-88
2021/12/29 05:27:03;;;;;;;213.90;19.30;;;;;;;;;;4994905;28;20137;-94
2021/12/29 05:29:29;;;;;;;265.77;20.88;;;;;;;;;;5010133;28;20056;-88
2021/12/29 05:31:58;;;;;;;238.52;19.35;;;;;;;;;;5013950;28;20080;-87
2021/12/29 05:34:24;;;;;;;285.55;20.52;;;;;;;;;;5015706;28;20455;-88
2021/12/29 05:36:50;;;;;;;297.15;25.08;;;;;;;;;;5017625;28;20042;-88
2021/12/29 05:39:16;;;;;;;251.80;20.35;;;;;;;;;;5013317;28;20053;-87
2021/12/29 05:41:42;;;;;;;243.30;20.63;;;;;;;;;;5018326;28;20465;-87
2021/12/29 05:44:08;;;;;;;268.65;21.38;;;;;;;;;;5016688;28;20037;-87
2021/12/29 05:46:35;;;;;;;238.38;21.10;;;;;;;;;;5016100;28;20041;-88
2021/12/29 05:49:01;;;;;;;187.75;21.13;;;;;;;;;;5014337;28;20053;-88
2021/12/29 05:51:27;;;;;;;201.07;22.08;;;;;;;;;;5013452;28;20053;-89
2021/12/29 05:53:53;;;;;;;179.82;19.63;;;;;;;;;;4997074;28;20040;-91
2021/12/29 05:56:19;;;;;;;276.15;19.25;;;;;;;;;;5007869;28;21890;-87
2021/12/29 05:58:45;;;;;;;155.40;18.55;;;;;;;;;;4995713;28;20838;-88
2021/12/29 06:01:14;;;;;;;175.25;18.58;;;;;;;;;;5008338;28;20041;-87
2021/12/29 06:03:40;;;;;;;183.88;17.75;;;;;;;;;;5010998;28;20535;-88
2021/12/29 06:06:06;;;;;;;220.82;20.02;;;;;;;;;;5015331;28;20033;-88
2021/12/29 06:08:33;;;;;;;247.73;20.83;;;;;;;;;;4991743;28;20201;-88
2021/12/29 06:10:59;;;;;;;325.13;20.90;;;;;;;;;;5017399;28;20743;-88
2021/12/29 06:13:26;;;;;;;321.50;23.92;;;;;;;;;;4995217;28;20068;-95
2021/12/29 06:15:52;;;;;;;344.15;21.13;;;;;;;;;;5013898;28;20481;-87
2021/12/29 06:18:18;;;;;;;314.17;23.05;;;;;;;;;;4995294;28;20818;-86
2021/12/29 06:20:44;;;;;;;322.55;21.65;;;;;;;;;;5012247;28;20038;-88
2021/12/29 06:23:13;;;;;;;298.58;21.25;;;;;;;;;;5001280;28;21515;-87
2021/12/29 06:25:40;;;;;;;414.13;24.48;;;;;;;;;;5017843;28;20053;-87
2021/12/29 06:28:06;;;;;;;327.38;23.85;;;;;;;;;;5013802;28;20037;-89
2021/12/29 06:30:32;;;;;;;308.38;22.42;;;;;;;;;;4994209;28;20041;-87
2021/12/29 06:32:58;;;;;;;326.27;24.55;;;;;;;;;;5010996;28;20046;-87
2021/12/29 06:35:24;;;;;;;318.23;23.65;;;;;;;;;;5010976;28;20050;-90
2021/12/29 06:37:50;;;;;;;311.95;21.67;;;;;;;;;;5011616;28;20049;-90
2021/12/29 06:40:17;;;;;;;266.45;21.98;;;;;;;;;;4991907;28;20053;-88
2021/12/29 06:42:43;;;;;;;325.90;22.42;;;;;;;;;;5012720;28;20414;-88
2021/12/29 06:45:10;;;;;;;288.67;21.70;;;;;;;;;;4977029;28;20052;-86
2021/12/29 06:47:36;;;;;;;261.80;22.10;;;;;;;;;;5011250;28;20200;-86
2021/12/29 06:50:03;;;;;;;295.50;22.38;;;;;;;;;;5014416;28;20132;-87
2021/12/29 06:52:29;;;;;;;321.42;23.50;;;;;;;;;;5008406;28;20045;-87
2021/12/29 06:54:55;;;;;;;242.75;20.35;;;;;;;;;;4999221;28;20049;-87
2021/12/29 06:57:21;;;;;;;226.95;19.83;;;;;;;;;;5008508;28;20042;-87
2021/12/29 06:59:50;;;;;;;205.43;19.20;;;;;;;;;;5008853;28;20033;-86
2021/12/29 07:02:17;;;;;;;260.05;20.10;;;;;;;;;;5011738;28;20514;-89
2021/12/29 07:04:43;;;;;;;241.52;21.73;;;;;;;;;;4995202;28;20107;-88
2021/12/29 07:07:09;;;;;;;282.73;23.50;;;;;;;;;;5012562;28;20041;-87
2021/12/29 07:09:35;;;;;;;243.38;20.13;;;;;;;;;;5014755;28;20124;-88
2021/12/29 07:12:02;;;;;;;289.52;19.85;;;;;;;;;;4996439;28;20092;-88
2021/12/29 07:14:28;;;;;;;353.08;25.85;;;;;;;;;;5006761;28;20200;-88
2021/12/29 07:16:54;;;;;;;638.80;45.42;;;;;;;;;;5012332;28;20067;-87
2021/12/29 07:19:20;;;;;;;276.75;20.92;;;;;;;;;;5010430;28;20045;-89
2021/12/29 07:21:47;;;;;;;276.33;22.33;;;;;;;;;;5011693;28;20831;-88
2021/12/29 07:24:13;;;;;;;818.88;59.88;;;;;;;;;;5011972;28;20045;-87
2021/12/29 07:26:40;;;;;;;188.15;21.02;;;;;;;;;;5011030;28;20115;-87
2021/12/29 07:29:07;;;;;;;333.17;25.10;;;;;;;;;;4999807;28;20075;-86
2021/12/29 07:31:33;;;;;;;304.73;22.55;;;;;;;;;;4992864;28;20050;-87
2021/12/29 07:33:59;;;;;;;197.82;19.92;;;;;;;;;;4989058;28;20111;-90
2021/12/29 07:36:25;;;;;;;158.48;18.25;;;;;;;;;;5011217;28;20397;-87
2021/12/29 07:38:53;;;;;;;151.77;19.80;;;;;;;;;;5012451;28;20563;-88
2021/12/29 07:41:19;;;;;;;176.50;20.55;;;;;;;;;;5008201;28;20085;-88
2021/12/29 07:43:50;;;;;;;204.65;20.60;;;;;;;;;;4997909;28;20053;-89
2021/12/29 07:46:16;;;;;;;192.75;19.70;;;;;;;;;;5000290;28;20869;-88
2021/12/29 07:48:43;;;;;;;211.30;16.83;;;;;;;;;;5015187;28;20069;-88
2021/12/29 07:51:09;;;;;;;154.70;17.88;;;;;;;;;;4997157;28;20080;-89
2021/12/29 07:53:37;;;;;;;194.18;18.98;;;;;;;;;;5013233;28;20045;-87
2021/12/29 07:56:05;;;;;;;212.40;18.27;;;;;;;;;;5012197;28;20041;-91
2021/12/29 07:58:31;;;;;;;187.05;19.30;;;;;;;;;;5010248;28;20045;-89
2021/12/29 08:00:57;;;;;;;213.23;20.55;;;;;;;;;;5000368;28;20053;-89
2021/12/29 08:03:26;;;;;;;200.80;21.38;;;;;;;;;;5013111;28;20037;-88
2021/12/29 08:05:52;;;;;;;181.15;20.67;;;;;;;;;;5000559;28;20048;-89
2021/12/29 08:08:18;;;;;;;167.55;20.70;;;;;;;;;;5017015;28;20049;-90
2021/12/29 08:10:44;;;;;;;208.77;21.70;;;;;;;;;;4984572;28;20030;-89
2021/12/29 08:13:10;;;;;;;128.50;20.95;;;;;;;;;;4978969;28;20041;-91
2021/12/29 08:15:36;;;;;;;193.82;26.15;;;;;;;;;;5012456;28;20042;-89
2021/12/29 08:18:04;;;;;;;222.05;23.58;;;;;;;;;;5008400;28;20094;-92
2021/12/29 08:20:32;;;;;;;311.80;26.45;;;;;;;;;;5000169;28;20086;-88
2021/12/29 08:22:59;;;;;;;191.95;22.55;;;;;;;;;;5011874;28;20517;-88
2021/12/29 08:25:26;;;;;;;216.70;24.45;;;;;;;;;;5000581;28;20038;-88
2021/12/29 08:27:52;;;;;;;201.60;21.70;;;;;;;;;;4998982;28;20044;-88
2021/12/29 08:30:18;;;;;;;218.70;24.30;;;;;;;;;;5010562;28;20034;-89
2021/12/29 08:32:44;;;;;;;199.57;24.50;;;;;;;;;;4993723;28;20145;-88
2021/12/29 08:35:11;;;;;;;155.23;22.40;;;;;;;;;;5000965;28;20053;-90
2021/12/29 08:37:52;;;;;;;245.85;25.85;;;;;;;;;;5014718;28;20057;-87
2021/12/29 08:40:18;;;;;;;133.90;21.67;;;;;;;;;;4995764;28;20101;-88
2021/12/29 08:42:47;;;;;;;177.32;24.05;;;;;;;;;;5006597;28;20176;-91
2021/12/29 08:45:14;;;;;;;180.35;25.58;;;;;;;;;;4988245;28;20033;-89
2021/12/29 08:47:41;;;;;;;201.57;25.90;;;;;;;;;;4990800;28;20046;-91
2021/12/29 08:50:09;;;;;;;204.90;30.27;;;;;;;;;;4988267;28;20774;-90
2021/12/29 08:52:35;;;;;;;226.40;29.33;;;;;;;;;;5006861;28;20446;-90
2021/12/29 08:55:03;;;;;;;228.55;30.38;;;;;;;;;;4984745;28;20038;-90
2021/12/29 08:57:29;;;;;;;139.43;28.15;;;;;;;;;;5007818;28;20104;-90
2021/12/29 08:59:55;;;;;;;153.68;27.95;;;;;;;;;;5008024;28;20054;-86
2021/12/29 09:02:22;;;;;;;202.23;29.25;;;;;;;;;;5010297;28;20034;-86
2021/12/29 09:04:48;;;;;;;349.70;35.58;;;;;;;;;;5013381;28;20057;-88
2021/12/29 09:07:14;;;;;;;218.27;32.17;;;;;;;;;;5006636;28;20398;-88
2021/12/29 09:09:40;;;;;;;265.33;32.40;;;;;;;;;;4992934;28;20148;-88
2021/12/29 09:12:06;;;;;;;236.18;31.75;;;;;;;;;;4991739;28;20030;-87
2021/12/29 09:14:32;;;;;;;240.68;34.53;;;;;;;;;;4990943;28;20045;-86
2021/12/29 09:16:58;;;;;;;246.02;33.08;;;;;;;;;;4998585;28;20159;-95
2021/12/29 09:19:25;;;;;;;302.92;38.42;;;;;;;;;;5001883;28;20113;-91
2021/12/29 09:21:56;;;;;;;247.23;34.45;;;;;;;;;;4991422;28;20045;-87
2021/12/29 09:24:22;;;;;;;205.63;31.67;;;;;;;;;;5006547;28;20086;-88
2021/12/29 09:26:48;;;;;;;152.23;32.45;;;;;;;;;;5016329;28;20130;-85
2021/12/29 09:29:14;;;;;;;189.18;31.63;;;;;;;;;;5012381;28;20053;-87
2021/12/29 09:31:41;;;;;;;159.27;30.23;;;;;;;;;;5012428;28;20037;-86
2021/12/29 09:34:07;;;;;;;215.85;36.97;;;;;;;;;;4993169;28;20053;-86
2021/12/29 09:36:33;;;;;;;228.98;36.10;;;;;;;;;;4989072;28;20049;-87
2021/12/29 09:39:00;;;;;;;231.52;36.72;;;;;;;;;;5014358;28;20464;-86
2021/12/29 09:41:31;;;;;;;228.68;35.13;;;;;;;;;;5009965;28;20100;-89
2021/12/29 09:43:57;;;;;;;235.57;32.97;;;;;;;;;;5008642;28;20041;-84
2021/12/29 09:46:23;;;;;;;268.38;35.65;;;;;;;;;;5005078;28;20084;-84
2021/12/29 09:48:51;;;;;;;147.23;28.42;;;;;;;;;;4998627;28;20046;-85
2021/12/29 09:51:18;;;;;;;131.23;28.33;;;;;;;;;;4991497;28;20042;-85
2021/12/29 09:53:44;;;;;;;106.00;28.10;;;;;;;;;;5011004;28;20136;-85
2021/12/29 09:56:11;;;;;;;123.47;25.45;;;;;;;;;;4997259;28;20042;-85
2021/12/29 09:58:38;;;;;;;153.80;27.10;;;;;;;;;;4995125;28;20049;-85
2021/12/29 10:01:05;;;;;;;158.10;26.15;;;;;;;;;;5011912;28;20046;-86
2021/12/29 10:03:31;;;;;;;143.95;26.35;;;;;;;;;;4992797;28;20198;-86
2021/12/29 10:06:00;;;;;;;145.32;26.23;;;;;;;;;;4993425;28;20030;-85
2021/12/29 10:08:28;;;;;;;148.40;26.45;;;;;;;;;;5009767;28;20130;-86
2021/12/29 10:11:06;;;;;;;146.00;26.08;;;;;;;;;;4995975;28;20057;-87
2021/12/29 10:13:33;;;;;;;114.03;25.73;;;;;;;;;;5003372;28;20034;-82
2021/12/29 10:16:02;;;;;;;98.10;23.85;;;;;;;;;;5013704;28;20119;-83
2021/12/29 10:18:29;;;;;;;118.95;26.92;;;;;;;;;;5008801;28;20057;-83
2021/12/29 10:20:57;;;;;;;101.53;24.27;;;;;;;;;;4992805;28;20038;-83
2021/12/29 10:23:26;;;;;;;93.57;22.63;;;;;;;;;;5009282;28;20103;-84
2021/12/29 10:25:53;;;;;;;96.85;23.15;;;;;;;;;;5010013;28;20085;-82
2021/12/29 10:28:24;;;;;;;82.90;23.40;;;;;;;;;;4996050;28;20041;-82
2021/12/29 10:30:54;;;;;;;80.20;22.77;;;;;;;;;;5014851;28;20061;-82
2021/12/29 10:33:21;;;;;;;85.47;21.50;;;;;;;;;;4999917;28;20397;-82
2021/12/29 10:35:47;;;;;;;112.05;23.35;;;;;;;;;;5003384;28;20042;-82
2021/12/29 10:38:17;;;;;;;109.97;23.52;;;;;;;;;;4998923;28;20468;-84
2021/12/29 10:40:43;;;;;;;116.90;23.08;;;;;;;;;;5014062;28;20703;-83
2021/12/29 10:43:10;;;;;;;122.10;23.20;;;;;;;;;;5012166;28;20034;-83
2021/12/29 10:45:37;;;;;;;119.45;22.95;;;;;;;;;;5013610;28;20045;-82
2021/12/29 10:48:16;;;;;;;146.00;25.20;;;;;;;;;;5008668;28;20042;-81
2021/12/29 10:50:53;;;;;;;131.20;27.67;;;;;;;;;;5008636;28;20045;-82
2021/12/29 10:53:23;;;;;;;125.47;23.10;;;;;;;;;;5009589;28;20401;-83
2021/12/29 10:55:49;;;;;;;109.20;25.20;;;;;;;;;;5013171;28;20034;-82
2021/12/29 10:58:21;;;;;;;150.50;32.47;;;;;;;;;;5012963;28;20060;-82
2021/12/29 11:00:50;;;;;;;112.22;27.35;;;;;;;;;;5014251;28;20206;-82
2021/12/29 11:03:22;;;;;;;129.25;28.95;;;;;;;;;;5023723;28;20411;-83
2021/12/29 11:05:52;;;;;;;125.18;28.73;;;;;;;;;;5014889;28;20042;-83
2021/12/29 11:08:18;;;;;;;92.60;21.95;;;;;;;;;;5014469;28;20050;-82
2021/12/29 11:10:45;;;;;;;94.43;23.17;;;;;;;;;;5013914;28;20497;-82
2021/12/29 11:13:12;;;;;;;98.80;24.65;;;;;;;;;;5012757;28;20048;-83
2021/12/29 11:15:41;;;;;;;80.63;23.15;;;;;;;;;;5010677;28;20493;-82
2021/12/29 11:18:11;;;;;;;72.15;22.17;;;;;;;;;;5008742;28;20042;-82
2021/12/29 11:20:39;;;;;;;70.25;21.83;;;;;;;;;;5011855;28;20053;-82
2021/12/29 11:23:20;;;;;;;60.15;19.60;;;;;;;;;;5005973;28;20045;-84
2021/12/29 11:25:47;;;;;;;61.55;18.83;;;;;;;;;;5006360;28;20145;-82
2021/12/29 11:28:31;;;;;;;56.95;18.08;;;;;;;;;;5009522;28;20033;-82
2021/12/29 11:30:59;;;;;;;55.92;18.52;;;;;;;;;;5013120;28;20383;-82
2021/12/29 11:33:30;;;;;;;56.90;18.60;;;;;;;;;;5015144;28;20050;-82
2021/12/29 11:35:59;;;;;;;57.83;18.25;;;;;;;;;;5020100;28;20058;-86
2021/12/29 11:38:28;;;;;;;52.90;18.77;;;;;;;;;;5014301;28;20053;-83
2021/12/29 11:40:59;;;;;;;54.95;18.65;;;;;;;;;;5003280;28;20171;-85
2021/12/29 11:43:26;;;;;;;58.70;18.75;;;;;;;;;;5008529;28;20521;-84
2021/12/29 11:45:53;;;;;;;51.47;18.98;;;;;;;;;;5018965;28;20038;-86
2021/12/29 11:48:21;;;;;;;53.38;19.02;;;;;;;;;;4993157;28;20050;-87
2021/12/29 11:50:51;;;;;;;53.17;18.20;;;;;;;;;;5007086;28;20502;-88
2021/12/29 11:53:38;;;;;;;44.10;16.92;;;;;;;;;;5011664;28;20544;-86
2021/12/29 11:56:08;;;;;;;46.63;17.40;;;;;;;;;;5009688;28;20053;-84
2021/12/29 11:58:41;;;;;;;46.58;16.48;;;;;;;;;;5004513;28;20057;-82
2021/12/29 12:01:12;;;;;;;39.33;16.77;;;;;;;;;;5005244;28;20100;-80
2021/12/29 12:03:39;;;;;;;43.13;15.10;;;;;;;;;;5006123;28;20053;-81
2021/12/29 12:06:08;;;;;;;40.95;17.10;;;;;;;;;;5003807;28;20498;-84
2021/12/29 12:08:34;;;;;;;39.55;15.13;;;;;;;;;;5005004;28;20042;-83
2021/12/29 12:11:01;;;;;;;42.08;16.00;;;;;;;;;;4989446;28;20053;-85
2021/12/29 12:13:35;;;;;;;42.03;15.23;;;;;;;;;;5009829;28;20038;-85
2021/12/29 12:16:09;;;;;;;43.45;16.05;;;;;;;;;;5006582;28;20042;-81
2021/12/29 12:18:45;;;;;;;38.03;15.93;;;;;;;;;;5004378;28;20565;-81
2021/12/29 12:21:28;;;;;;;42.25;16.77;;;;;;;;;;4985740;28;20049;-81
2021/12/29 12:23:54;;;;;;;36.15;15.75;;;;;;;;;;5003918;28;20061;-80
2021/12/29 12:26:25;;;;;;;35.65;16.20;;;;;;;;;;5006941;28;20034;-81
2021/12/29 12:28:52;;;;;;;35.20;15.75;;;;;;;;;;5012319;28;20048;-83
2021/12/29 12:31:29;;;;;;;35.60;16.73;;;;;;;;;;5019714;28;20445;-81
2021/12/29 12:34:06;;;;;;;31.58;15.27;;;;;;;;;;5009248;28;20073;-81
2021/12/29 12:36:33;;;;;;;38.88;16.35;;;;;;;;;;5004465;28;20077;-81
2021/12/29 12:39:27;;;;;;;39.05;14.93;;;;;;;;;;4998404;28;20105;-83
2021/12/29 12:41:53;;;;;;;32.85;15.18;;;;;;;;;;4999824;28;20049;-83
2021/12/29 12:44:29;;;;;;;45.42;16.27;;;;;;;;;;5004282;28;20162;-83
2021/12/29 12:46:56;;;;;;;30.10;13.43;;;;;;;;;;5008409;28;20101;-83
2021/12/29 12:49:26;;;;;;;33.35;14.30;;;;;;;;;;5004413;28;20041;-82
2021/12/29 12:52:00;;;;;;;36.85;14.35;;;;;;;;;;4985885;28;20060;-82
2021/12/29 12:54:27;;;;;;;26.83;13.45;;;;;;;;;;5000493;28;20528;-83
2021/12/29 12:56:54;;;;;;;36.17;14.98;;;;;;;;;;4997092;28;20555;-83
2021/12/29 12:59:20;;;;;;;27.00;13.18;;;;;;;;;;5001771;28;20038;-83
2021/12/29 13:01:47;;;;;;;35.40;14.10;;;;;;;;;;4999620;28;20034;-82
2021/12/29 13:04:16;;;;;;;32.53;13.77;;;;;;;;;;4998136;28;20121;-82
2021/12/29 13:06:43;;;;;;;27.88;12.20;;;;;;;;;;4977135;28;20034;-82
2021/12/29 13:09:10;;;;;;;33.03;12.50;;;;;;;;;;4979617;28;20060;-83
2021/12/29 13:11:37;;;;;;;35.08;14.13;;;;;;;;;;4996903;28;20058;-83
2021/12/29 13:14:04;;;;;;;30.90;13.65;;;;;;;;;;4978708;28;20034;-82
2021/12/29 13:16:31;;;;;;;54.55;14.25;;;;;;;;;;4997719;28;20038;-82
2021/12/29 13:18:58;;;;;;;36.33;14.48;;;;;;;;;;4994435;28;20683;-83
2021/12/29 13:21:25;;;;;;;38.28;13.82;;;;;;;;;;4981395;28;20041;-83
2021/12/29 13:23:53;;;;;;;30.75;13.23;;;;;;;;;;4995743;28;20057;-82
2021/12/29 13:26:20;;;;;;;38.28;15.55;;;;;;;;;;4993945;28;20042;-82
2021/12/29 13:28:46;;;;;;;36.40;13.30;;;;;;;;;;4981176;28;20093;-82
2021/12/29 13:31:14;;;;;;;36.28;14.15;;;;;;;;;;4997433;28;20037;-82
2021/12/29 13:33:51;;;;;;;34.35;13.88;;;;;;;;;;4996467;28;20050;-82
2021/12/29 13:36:18;;;;;;;36.97;14.15;;;;;;;;;;4996487;28;20366;-83
2021/12/29 13:38:44;;;;;;;42.83;16.27;;;;;;;;;;4996455;28;20081;-84
2021/12/29 13:41:15;;;;;;;32.03;14.32;;;;;;;;;;4995848;28;20045;-84
2021/12/29 13:43:45;;;;;;;49.35;17.00;;;;;;;;;;4995641;28;20073;-88
2021/12/29 13:46:15;;;;;;;45.92;15.13;;;;;;;;;;4982393;28;20104;-84
2021/12/29 13:48:43;;;;;;;42.33;15.32;;;;;;;;;;4988627;28;20161;-83
2021/12/29 13:51:14;;;;;;;46.97;16.13;;;;;;;;;;4999436;28;20042;-84
2021/12/29 13:53:48;;;;;;;40.58;14.70;;;;;;;;;;4992444;28;20085;-84
2021/12/29 13:56:19;;;;;;;50.47;16.05;;;;;;;;;;4994707;28;20050;-85
2021/12/29 13:59:06;;;;;;;31.52;15.05;;;;;;;;;;4999459;28;20053;-81
2021/12/29 14:01:34;;;;;;;34.70;14.27;;;;;;;;;;5002742;28;20033;-83
2021/12/29 14:04:01;;;;;;;41.60;15.30;;;;;;;;;;4999975;28;20046;-83
2021/12/29 14:06:30;;;;;;;42.00;14.48;;;;;;;;;;4999862;28;20140;-82
2021/12/29 14:08:57;;;;;;;35.35;15.23;;;;;;;;;;4997002;28;20039;-83
2021/12/29 14:11:26;;;;;;;35.78;15.27;;;;;;;;;;4999367;28;20125;-84
2021/12/29 14:14:06;;;;;;;35.20;14.50;;;;;;;;;;5001576;28;20085;-84
2021/12/29 14:16:33;;;;;;;39.83;14.05;;;;;;;;;;5000854;28;20057;-83
2021/12/29 14:19:01;;;;;;;40.78;14.05;;;;;;;;;;5004897;28;20077;-84